sensor_id;sensor_type;location;lat;lon;timestamp;P1;durP1;ratioP1;P2;durP2;ratioP2
7613;SDS011;3848;42.016;23.098;2022-11-11T00:01:00;63.37;;;55.43;;
7613;SDS011;3848;42.016;23.098;2022-11-11T00:03:27;61.37;;;55.97;;
7613;SDS011;3848;42.016;23.098;2022-11-11T00:05:58;61.43;;;56.17;;
7613;SDS011;3848;42.016;23.098;2022-11-11T00:08:26;61.37;;;55.50;;
7613;SDS011;3848;42.016;23.098;2022-11-11T00:10:58;58.07;;;53.33;;
7613;SDS011;3848;42.016;23.098;2022-11-11T00:13:27;58.17;;;52.80;;
7613;SDS011;3848;42.016;23.098;2022-11-11T00:15:54;59.00;;;53.47;;
7613;SDS011;3848;42.016;23.098;2022-11-11T00:18:21;60.00;;;55.03;;
7613;SDS011;3848;42.016;23.098;2022-11-11T00:21:07;61.73;;;56.43;;
7613;SDS011;3848;42.016;23.098;2022-11-11T00:24:15;61.20;;;56.37;;
7613;SDS011;3848;42.016;23.098;2022-11-11T00:27:05;61.97;;;57.20;;
7613;SDS011;3848;42.016;23.098;2022-11-11T00:29:32;62.70;;;57.20;;
7613;SDS011;3848;42.016;23.098;2022-11-11T00:31:59;63.30;;;58.10;;
7613;SDS011;3848;42.016;23.098;2022-11-11T00:34:43;62.67;;;57.00;;
7613;SDS011;3848;42.016;23.098;2022-11-11T00:37:30;60.53;;;55.00;;
7613;SDS011;3848;42.016;23.098;2022-11-11T00:39:57;63.30;;;57.47;;
7613;SDS011;3848;42.016;23.098;2022-11-11T00:42:25;61.33;;;56.13;;
7613;SDS011;3848;42.016;23.098;2022-11-11T00:44:52;64.33;;;58.03;;
7613;SDS011;3848;42.016;23.098;2022-11-11T00:47:19;63.13;;;57.57;;
7613;SDS011;3848;42.016;23.098;2022-11-11T00:50:05;64.17;;;58.27;;
7613;SDS011;3848;42.016;23.098;2022-11-11T00:52:52;65.47;;;59.50;;
7613;SDS011;3848;42.016;23.098;2022-11-11T00:55:19;63.50;;;57.17;;
7613;SDS011;3848;42.016;23.098;2022-11-11T00:57:47;63.40;;;57.77;;
7613;SDS011;3848;42.016;23.098;2022-11-11T01:00:14;63.17;;;57.20;;
7613;SDS011;3848;42.016;23.098;2022-11-11T01:02:41;61.90;;;56.37;;
7613;SDS011;3848;42.016;23.098;2022-11-11T01:05:08;61.80;;;55.80;;
7613;SDS011;3848;42.016;23.098;2022-11-11T01:07:34;60.93;;;54.63;;
7613;SDS011;3848;42.016;23.098;2022-11-11T01:10:01;57.60;;;51.43;;
7613;SDS011;3848;42.016;23.098;2022-11-11T01:12:29;61.83;;;55.20;;
7613;SDS011;3848;42.016;23.098;2022-11-11T01:14:57;59.20;;;52.60;;
7613;SDS011;3848;42.016;23.098;2022-11-11T01:17:24;55.40;;;49.70;;
7613;SDS011;3848;42.016;23.098;2022-11-11T01:19:50;55.27;;;49.53;;
7613;SDS011;3848;42.016;23.098;2022-11-11T01:22:17;55.40;;;49.60;;
7613;SDS011;3848;42.016;23.098;2022-11-11T01:24:44;56.10;;;49.93;;
7613;SDS011;3848;42.016;23.098;2022-11-11T01:27:11;54.63;;;49.17;;
7613;SDS011;3848;42.016;23.098;2022-11-11T01:29:37;55.30;;;49.80;;
7613;SDS011;3848;42.016;23.098;2022-11-11T01:32:06;57.77;;;52.37;;
7613;SDS011;3848;42.016;23.098;2022-11-11T01:34:32;57.67;;;52.00;;
7613;SDS011;3848;42.016;23.098;2022-11-11T01:36:59;52.80;;;47.77;;
7613;SDS011;3848;42.016;23.098;2022-11-11T01:39:26;57.00;;;51.23;;
7613;SDS011;3848;42.016;23.098;2022-11-11T01:41:52;54.63;;;49.23;;
7613;SDS011;3848;42.016;23.098;2022-11-11T01:47:08;60.93;;;54.93;;
7613;SDS011;3848;42.016;23.098;2022-11-11T01:49:36;60.40;;;54.43;;
7613;SDS011;3848;42.016;23.098;2022-11-11T01:52:13;60.70;;;54.63;;
7613;SDS011;3848;42.016;23.098;2022-11-11T01:54:45;60.23;;;54.17;;
7613;SDS011;3848;42.016;23.098;2022-11-11T01:57:16;56.93;;;51.30;;
7613;SDS011;3848;42.016;23.098;2022-11-11T01:59:47;57.90;;;52.93;;
7613;SDS011;3848;42.016;23.098;2022-11-11T02:02:27;57.70;;;52.67;;
7613;SDS011;3848;42.016;23.098;2022-11-11T02:04:59;60.37;;;54.87;;
7613;SDS011;3848;42.016;23.098;2022-11-11T02:07:57;55.97;;;51.33;;
7613;SDS011;3848;42.016;23.098;2022-11-11T02:10:27;54.10;;;48.80;;
7613;SDS011;3848;42.016;23.098;2022-11-11T02:12:57;55.00;;;49.90;;
7613;SDS011;3848;42.016;23.098;2022-11-11T02:15:42;55.33;;;50.60;;
7613;SDS011;3848;42.016;23.098;2022-11-11T02:18:11;56.67;;;51.20;;
7613;SDS011;3848;42.016;23.098;2022-11-11T02:20:39;57.53;;;52.07;;
7613;SDS011;3848;42.016;23.098;2022-11-11T02:23:09;57.10;;;52.10;;
7613;SDS011;3848;42.016;23.098;2022-11-11T02:25:42;56.30;;;50.83;;
7613;SDS011;3848;42.016;23.098;2022-11-11T02:28:12;55.07;;;50.10;;
7613;SDS011;3848;42.016;23.098;2022-11-11T02:30:40;50.97;;;46.13;;
7613;SDS011;3848;42.016;23.098;2022-11-11T02:33:07;52.27;;;47.53;;
7613;SDS011;3848;42.016;23.098;2022-11-11T02:35:35;51.60;;;47.20;;
7613;SDS011;3848;42.016;23.098;2022-11-11T02:38:04;52.03;;;47.33;;
7613;SDS011;3848;42.016;23.098;2022-11-11T02:40:34;50.83;;;47.00;;
7613;SDS011;3848;42.016;23.098;2022-11-11T02:43:04;55.97;;;51.07;;
7613;SDS011;3848;42.016;23.098;2022-11-11T02:45:31;53.67;;;49.30;;
7613;SDS011;3848;42.016;23.098;2022-11-11T02:47:58;52.43;;;47.80;;
7613;SDS011;3848;42.016;23.098;2022-11-11T02:50:25;55.43;;;51.07;;
7613;SDS011;3848;42.016;23.098;2022-11-11T02:52:51;56.90;;;52.67;;
7613;SDS011;3848;42.016;23.098;2022-11-11T02:55:18;56.30;;;50.63;;
7613;SDS011;3848;42.016;23.098;2022-11-11T02:57:45;55.47;;;50.73;;
7613;SDS011;3848;42.016;23.098;2022-11-11T03:00:14;60.73;;;51.63;;
7613;SDS011;3848;42.016;23.098;2022-11-11T03:02:42;56.37;;;51.87;;
7613;SDS011;3848;42.016;23.098;2022-11-11T03:05:09;57.20;;;51.63;;
7613;SDS011;3848;42.016;23.098;2022-11-11T03:07:35;55.10;;;49.93;;
7613;SDS011;3848;42.016;23.098;2022-11-11T03:10:02;56.87;;;51.70;;
7613;SDS011;3848;42.016;23.098;2022-11-11T03:12:29;59.60;;;54.00;;
7613;SDS011;3848;42.016;23.098;2022-11-11T03:14:56;61.70;;;55.87;;
7613;SDS011;3848;42.016;23.098;2022-11-11T03:17:24;59.63;;;53.93;;
7613;SDS011;3848;42.016;23.098;2022-11-11T03:20:06;60.87;;;54.93;;
7613;SDS011;3848;42.016;23.098;2022-11-11T03:22:58;56.93;;;51.70;;
7613;SDS011;3848;42.016;23.098;2022-11-11T03:25:29;60.43;;;54.40;;
7613;SDS011;3848;42.016;23.098;2022-11-11T03:28:05;60.63;;;55.37;;
7613;SDS011;3848;42.016;23.098;2022-11-11T03:30:33;58.47;;;52.47;;
7613;SDS011;3848;42.016;23.098;2022-11-11T03:33:01;55.33;;;50.60;;
7613;SDS011;3848;42.016;23.098;2022-11-11T03:35:29;57.90;;;52.20;;
7613;SDS011;3848;42.016;23.098;2022-11-11T03:37:56;59.03;;;53.73;;
7613;SDS011;3848;42.016;23.098;2022-11-11T03:40:40;57.63;;;52.27;;
7613;SDS011;3848;42.016;23.098;2022-11-11T03:43:07;62.13;;;56.00;;
7613;SDS011;3848;42.016;23.098;2022-11-11T03:45:34;61.90;;;54.97;;
7613;SDS011;3848;42.016;23.098;2022-11-11T03:48:02;58.20;;;52.60;;
7613;SDS011;3848;42.016;23.098;2022-11-11T03:50:29;60.23;;;54.47;;
7613;SDS011;3848;42.016;23.098;2022-11-11T03:52:56;57.23;;;51.97;;
7613;SDS011;3848;42.016;23.098;2022-11-11T03:55:23;68.83;;;62.43;;
7613;SDS011;3848;42.016;23.098;2022-11-11T03:57:49;56.90;;;52.00;;
7613;SDS011;3848;42.016;23.098;2022-11-11T04:00:17;54.07;;;49.97;;
7613;SDS011;3848;42.016;23.098;2022-11-11T04:02:45;51.60;;;47.43;;
7613;SDS011;3848;42.016;23.098;2022-11-11T04:05:30;53.57;;;49.37;;
7613;SDS011;3848;42.016;23.098;2022-11-11T04:08:16;52.83;;;49.07;;
7613;SDS011;3848;42.016;23.098;2022-11-11T04:11:10;55.30;;;50.87;;
7613;SDS011;3848;42.016;23.098;2022-11-11T04:13:40;51.57;;;47.90;;
7613;SDS011;3848;42.016;23.098;2022-11-11T04:16:29;53.97;;;49.57;;
7613;SDS011;3848;42.016;23.098;2022-11-11T04:18:55;50.83;;;46.83;;
7613;SDS011;3848;42.016;23.098;2022-11-11T04:21:41;53.50;;;49.30;;
7613;SDS011;3848;42.016;23.098;2022-11-11T04:24:11;56.90;;;51.37;;
7613;SDS011;3848;42.016;23.098;2022-11-11T04:26:57;53.30;;;48.03;;
7613;SDS011;3848;42.016;23.098;2022-11-11T04:29:24;62.57;;;55.77;;
7613;SDS011;3848;42.016;23.098;2022-11-11T04:31:54;54.93;;;49.10;;
7613;SDS011;3848;42.016;23.098;2022-11-11T04:34:40;52.27;;;47.73;;
7613;SDS011;3848;42.016;23.098;2022-11-11T04:37:08;57.10;;;51.90;;
7613;SDS011;3848;42.016;23.098;2022-11-11T04:39:35;57.17;;;51.40;;
7613;SDS011;3848;42.016;23.098;2022-11-11T04:42:20;56.70;;;51.17;;
7613;SDS011;3848;42.016;23.098;2022-11-11T04:44:47;61.43;;;55.20;;
7613;SDS011;3848;42.016;23.098;2022-11-11T04:47:31;56.77;;;51.77;;
7613;SDS011;3848;42.016;23.098;2022-11-11T04:49:57;57.30;;;51.67;;
7613;SDS011;3848;42.016;23.098;2022-11-11T04:52:26;57.37;;;52.30;;
7613;SDS011;3848;42.016;23.098;2022-11-11T04:54:53;54.17;;;48.83;;
7613;SDS011;3848;42.016;23.098;2022-11-11T04:57:38;55.73;;;49.67;;
7613;SDS011;3848;42.016;23.098;2022-11-11T05:00:07;59.07;;;53.00;;
7613;SDS011;3848;42.016;23.098;2022-11-11T05:02:35;69.03;;;62.27;;
7613;SDS011;3848;42.016;23.098;2022-11-11T05:05:20;58.57;;;52.30;;
7613;SDS011;3848;42.016;23.098;2022-11-11T05:07:48;61.63;;;55.73;;
7613;SDS011;3848;42.016;23.098;2022-11-11T05:10:32;57.10;;;51.13;;
7613;SDS011;3848;42.016;23.098;2022-11-11T05:12:59;58.90;;;53.17;;
7613;SDS011;3848;42.016;23.098;2022-11-11T05:15:44;52.07;;;47.33;;
7613;SDS011;3848;42.016;23.098;2022-11-11T05:18:28;55.33;;;50.17;;
7613;SDS011;3848;42.016;23.098;2022-11-11T05:21:22;52.80;;;48.80;;
7613;SDS011;3848;42.016;23.098;2022-11-11T05:23:53;57.13;;;51.93;;
7613;SDS011;3848;42.016;23.098;2022-11-11T05:26:37;55.97;;;51.13;;
7613;SDS011;3848;42.016;23.098;2022-11-11T05:29:04;54.43;;;48.93;;
7613;SDS011;3848;42.016;23.098;2022-11-11T05:31:30;57.10;;;52.30;;
7613;SDS011;3848;42.016;23.098;2022-11-11T05:33:57;54.97;;;49.70;;
7613;SDS011;3848;42.016;23.098;2022-11-11T05:36:24;60.07;;;54.83;;
7613;SDS011;3848;42.016;23.098;2022-11-11T05:38:51;56.33;;;51.43;;
7613;SDS011;3848;42.016;23.098;2022-11-11T05:41:19;55.67;;;50.93;;
7613;SDS011;3848;42.016;23.098;2022-11-11T05:43:45;56.83;;;52.07;;
7613;SDS011;3848;42.016;23.098;2022-11-11T05:46:12;69.30;;;63.47;;
7613;SDS011;3848;42.016;23.098;2022-11-11T05:48:39;58.57;;;53.53;;
7613;SDS011;3848;42.016;23.098;2022-11-11T05:51:26;59.13;;;54.13;;
7613;SDS011;3848;42.016;23.098;2022-11-11T05:53:57;60.47;;;55.20;;
7613;SDS011;3848;42.016;23.098;2022-11-11T05:56:24;54.97;;;50.57;;
7613;SDS011;3848;42.016;23.098;2022-11-11T05:58:51;57.27;;;51.83;;
7613;SDS011;3848;42.016;23.098;2022-11-11T06:01:18;56.37;;;51.67;;
7613;SDS011;3848;42.016;23.098;2022-11-11T06:03:44;51.97;;;48.03;;
7613;SDS011;3848;42.016;23.098;2022-11-11T06:06:11;56.97;;;51.80;;
7613;SDS011;3848;42.016;23.098;2022-11-11T06:08:38;51.20;;;46.80;;
7613;SDS011;3848;42.016;23.098;2022-11-11T06:11:07;54.53;;;49.47;;
7613;SDS011;3848;42.016;23.098;2022-11-11T06:13:34;54.87;;;49.77;;
7613;SDS011;3848;42.016;23.098;2022-11-11T06:16:01;48.20;;;44.30;;
7613;SDS011;3848;42.016;23.098;2022-11-11T06:18:29;52.50;;;47.40;;
7613;SDS011;3848;42.016;23.098;2022-11-11T06:20:57;55.70;;;49.30;;
7613;SDS011;3848;42.016;23.098;2022-11-11T06:23:25;62.40;;;55.00;;
7613;SDS011;3848;42.016;23.098;2022-11-11T06:25:52;60.80;;;52.67;;
7613;SDS011;3848;42.016;23.098;2022-11-11T06:28:35;70.23;;;55.80;;
7613;SDS011;3848;42.016;23.098;2022-11-11T06:31:02;61.03;;;54.73;;
7613;SDS011;3848;42.016;23.098;2022-11-11T06:33:31;78.90;;;60.90;;
7613;SDS011;3848;42.016;23.098;2022-11-11T06:35:58;68.73;;;61.57;;
7613;SDS011;3848;42.016;23.098;2022-11-11T06:38:25;63.70;;;57.30;;
7613;SDS011;3848;42.016;23.098;2022-11-11T06:40:52;72.33;;;59.13;;
7613;SDS011;3848;42.016;23.098;2022-11-11T06:43:18;72.73;;;64.87;;
7613;SDS011;3848;42.016;23.098;2022-11-11T06:45:48;83.00;;;74.57;;
7613;SDS011;3848;42.016;23.098;2022-11-11T06:48:16;71.80;;;64.77;;
7613;SDS011;3848;42.016;23.098;2022-11-11T06:50:43;68.97;;;62.23;;
7613;SDS011;3848;42.016;23.098;2022-11-11T06:53:10;65.10;;;58.17;;
7613;SDS011;3848;42.016;23.098;2022-11-11T06:55:39;60.10;;;53.03;;
7613;SDS011;3848;42.016;23.098;2022-11-11T06:58:06;64.83;;;54.93;;
7613;SDS011;3848;42.016;23.098;2022-11-11T07:00:34;74.13;;;56.50;;
7613;SDS011;3848;42.016;23.098;2022-11-11T07:03:03;66.97;;;59.87;;
7613;SDS011;3848;42.016;23.098;2022-11-11T07:05:31;69.03;;;61.97;;
7613;SDS011;3848;42.016;23.098;2022-11-11T07:08:00;62.43;;;55.97;;
7613;SDS011;3848;42.016;23.098;2022-11-11T07:10:28;66.97;;;60.80;;
7613;SDS011;3848;42.016;23.098;2022-11-11T07:12:55;65.93;;;59.67;;
7613;SDS011;3848;42.016;23.098;2022-11-11T07:15:22;65.50;;;58.63;;
7613;SDS011;3848;42.016;23.098;2022-11-11T07:17:49;64.27;;;57.13;;
7613;SDS011;3848;42.016;23.098;2022-11-11T07:20:17;73.37;;;66.17;;
7613;SDS011;3848;42.016;23.098;2022-11-11T07:22:45;69.03;;;61.77;;
7613;SDS011;3848;42.016;23.098;2022-11-11T07:25:12;66.53;;;59.93;;
7613;SDS011;3848;42.016;23.098;2022-11-11T07:27:39;62.27;;;55.77;;
7613;SDS011;3848;42.016;23.098;2022-11-11T07:30:07;68.87;;;58.60;;
7613;SDS011;3848;42.016;23.098;2022-11-11T07:32:36;61.43;;;54.73;;
7613;SDS011;3848;42.016;23.098;2022-11-11T07:35:09;67.97;;;56.73;;
7613;SDS011;3848;42.016;23.098;2022-11-11T07:37:39;65.57;;;56.87;;
7613;SDS011;3848;42.016;23.098;2022-11-11T07:40:07;70.60;;;63.67;;
7613;SDS011;3848;42.016;23.098;2022-11-11T07:42:34;75.30;;;68.10;;
7613;SDS011;3848;42.016;23.098;2022-11-11T07:45:01;65.73;;;59.53;;
7613;SDS011;3848;42.016;23.098;2022-11-11T07:47:28;71.27;;;63.30;;
7613;SDS011;3848;42.016;23.098;2022-11-11T07:49:55;68.20;;;60.73;;
7613;SDS011;3848;42.016;23.098;2022-11-11T07:52:22;71.87;;;64.90;;
7613;SDS011;3848;42.016;23.098;2022-11-11T07:54:50;73.53;;;67.23;;
7613;SDS011;3848;42.016;23.098;2022-11-11T07:57:17;75.00;;;68.40;;
7613;SDS011;3848;42.016;23.098;2022-11-11T07:59:44;75.87;;;69.20;;
7613;SDS011;3848;42.016;23.098;2022-11-11T08:02:11;82.60;;;75.63;;
7613;SDS011;3848;42.016;23.098;2022-11-11T08:04:38;79.10;;;70.57;;
7613;SDS011;3848;42.016;23.098;2022-11-11T08:07:05;79.27;;;72.37;;
7613;SDS011;3848;42.016;23.098;2022-11-11T08:09:32;75.93;;;68.87;;
7613;SDS011;3848;42.016;23.098;2022-11-11T08:12:01;78.73;;;71.27;;
7613;SDS011;3848;42.016;23.098;2022-11-11T08:14:45;75.47;;;69.10;;
7613;SDS011;3848;42.016;23.098;2022-11-11T08:17:12;69.73;;;63.27;;
7613;SDS011;3848;42.016;23.098;2022-11-11T08:19:39;74.97;;;68.33;;
7613;SDS011;3848;42.016;23.098;2022-11-11T08:22:06;79.63;;;72.63;;
7613;SDS011;3848;42.016;23.098;2022-11-11T08:24:33;75.00;;;67.93;;
7613;SDS011;3848;42.016;23.098;2022-11-11T08:27:01;77.37;;;70.57;;
7613;SDS011;3848;42.016;23.098;2022-11-11T08:29:28;77.03;;;70.33;;
7613;SDS011;3848;42.016;23.098;2022-11-11T08:31:55;79.17;;;72.13;;
7613;SDS011;3848;42.016;23.098;2022-11-11T08:34:22;76.37;;;68.97;;
7613;SDS011;3848;42.016;23.098;2022-11-11T08:36:49;71.67;;;64.40;;
7613;SDS011;3848;42.016;23.098;2022-11-11T08:39:16;74.80;;;67.63;;
7613;SDS011;3848;42.016;23.098;2022-11-11T08:41:43;79.37;;;71.70;;
7613;SDS011;3848;42.016;23.098;2022-11-11T08:44:11;80.47;;;73.03;;
7613;SDS011;3848;42.016;23.098;2022-11-11T08:46:38;76.87;;;69.77;;
7613;SDS011;3848;42.016;23.098;2022-11-11T08:49:05;78.13;;;70.30;;
7613;SDS011;3848;42.016;23.098;2022-11-11T08:51:33;78.73;;;72.40;;
7613;SDS011;3848;42.016;23.098;2022-11-11T08:53:59;83.37;;;75.17;;
7613;SDS011;3848;42.016;23.098;2022-11-11T08:56:26;84.30;;;74.37;;
7613;SDS011;3848;42.016;23.098;2022-11-11T08:58:53;87.20;;;78.70;;
7613;SDS011;3848;42.016;23.098;2022-11-11T09:01:21;78.50;;;70.73;;
7613;SDS011;3848;42.016;23.098;2022-11-11T09:03:48;82.33;;;73.90;;
7613;SDS011;3848;42.016;23.098;2022-11-11T09:06:15;81.07;;;73.20;;
7613;SDS011;3848;42.016;23.098;2022-11-11T09:08:42;77.80;;;70.20;;
7613;SDS011;3848;42.016;23.098;2022-11-11T09:11:09;84.57;;;77.23;;
7613;SDS011;3848;42.016;23.098;2022-11-11T09:13:36;77.20;;;69.77;;
7613;SDS011;3848;42.016;23.098;2022-11-11T09:16:03;77.80;;;69.80;;
7613;SDS011;3848;42.016;23.098;2022-11-11T09:18:31;73.17;;;66.67;;
7613;SDS011;3848;42.016;23.098;2022-11-11T09:20:59;77.30;;;69.60;;
7613;SDS011;3848;42.016;23.098;2022-11-11T09:23:26;68.37;;;61.93;;
7613;SDS011;3848;42.016;23.098;2022-11-11T09:25:53;74.00;;;67.60;;
7613;SDS011;3848;42.016;23.098;2022-11-11T09:28:19;76.47;;;69.00;;
7613;SDS011;3848;42.016;23.098;2022-11-11T09:30:46;76.10;;;68.87;;
7613;SDS011;3848;42.016;23.098;2022-11-11T09:33:13;72.87;;;66.30;;
7613;SDS011;3848;42.016;23.098;2022-11-11T09:35:43;92.20;;;83.83;;
7613;SDS011;3848;42.016;23.098;2022-11-11T09:38:10;84.23;;;75.87;;
7613;SDS011;3848;42.016;23.098;2022-11-11T09:40:40;72.37;;;64.97;;
7613;SDS011;3848;42.016;23.098;2022-11-11T09:43:20;69.80;;;63.63;;
7613;SDS011;3848;42.016;23.098;2022-11-11T09:45:59;68.63;;;62.00;;
7613;SDS011;3848;42.016;23.098;2022-11-11T09:48:40;77.67;;;70.13;;
7613;SDS011;3848;42.016;23.098;2022-11-11T09:51:20;71.80;;;65.20;;
7613;SDS011;3848;42.016;23.098;2022-11-11T09:53:52;69.43;;;63.27;;
7613;SDS011;3848;42.016;23.098;2022-11-11T09:56:24;69.47;;;63.00;;
7613;SDS011;3848;42.016;23.098;2022-11-11T09:58:52;64.63;;;58.80;;
7613;SDS011;3848;42.016;23.098;2022-11-11T10:01:27;62.27;;;56.63;;
7613;SDS011;3848;42.016;23.098;2022-11-11T10:03:59;62.37;;;56.83;;
7613;SDS011;3848;42.016;23.098;2022-11-11T10:06:32;58.67;;;53.60;;
7613;SDS011;3848;42.016;23.098;2022-11-11T10:09:04;59.17;;;53.93;;
7613;SDS011;3848;42.016;23.098;2022-11-11T10:11:39;58.60;;;53.87;;
7613;SDS011;3848;42.016;23.098;2022-11-11T10:14:14;54.00;;;48.87;;
7613;SDS011;3848;42.016;23.098;2022-11-11T10:16:44;54.60;;;50.03;;
7613;SDS011;3848;42.016;23.098;2022-11-11T10:19:23;48.33;;;43.70;;
7613;SDS011;3848;42.016;23.098;2022-11-11T10:21:57;39.33;;;35.80;;
7613;SDS011;3848;42.016;23.098;2022-11-11T10:24:33;38.07;;;34.57;;
7613;SDS011;3848;42.016;23.098;2022-11-11T10:27:06;35.93;;;32.67;;
7613;SDS011;3848;42.016;23.098;2022-11-11T10:29:40;37.90;;;34.40;;
7613;SDS011;3848;42.016;23.098;2022-11-11T10:32:10;36.97;;;33.57;;
7613;SDS011;3848;42.016;23.098;2022-11-11T10:34:42;40.57;;;36.53;;
7613;SDS011;3848;42.016;23.098;2022-11-11T10:37:16;37.70;;;34.77;;
7613;SDS011;3848;42.016;23.098;2022-11-11T10:39:52;39.23;;;35.80;;
7613;SDS011;3848;42.016;23.098;2022-11-11T10:42:26;43.53;;;39.83;;
7613;SDS011;3848;42.016;23.098;2022-11-11T10:44:53;42.67;;;39.23;;
7613;SDS011;3848;42.016;23.098;2022-11-11T10:47:28;45.40;;;41.67;;
7613;SDS011;3848;42.016;23.098;2022-11-11T10:50:10;43.37;;;40.17;;
7613;SDS011;3848;42.016;23.098;2022-11-11T10:52:44;38.20;;;35.60;;
7613;SDS011;3848;42.016;23.098;2022-11-11T10:55:17;39.07;;;36.50;;
7613;SDS011;3848;42.016;23.098;2022-11-11T10:57:48;41.17;;;38.27;;
7613;SDS011;3848;42.016;23.098;2022-11-11T11:00:20;42.63;;;39.83;;
7613;SDS011;3848;42.016;23.098;2022-11-11T11:02:49;47.23;;;44.10;;
7613;SDS011;3848;42.016;23.098;2022-11-11T11:05:24;42.40;;;39.63;;
7613;SDS011;3848;42.016;23.098;2022-11-11T11:07:59;48.70;;;45.77;;
7613;SDS011;3848;42.016;23.098;2022-11-11T11:10:33;44.67;;;41.40;;
7613;SDS011;3848;42.016;23.098;2022-11-11T11:13:05;43.47;;;40.67;;
7613;SDS011;3848;42.016;23.098;2022-11-11T11:15:38;45.97;;;43.10;;
7613;SDS011;3848;42.016;23.098;2022-11-11T11:18:13;46.37;;;43.60;;
7613;SDS011;3848;42.016;23.098;2022-11-11T11:20:46;49.30;;;46.23;;
7613;SDS011;3848;42.016;23.098;2022-11-11T11:23:32;48.23;;;45.27;;
7613;SDS011;3848;42.016;23.098;2022-11-11T11:26:00;45.70;;;43.00;;
7613;SDS011;3848;42.016;23.098;2022-11-11T11:28:28;47.23;;;44.27;;
7613;SDS011;3848;42.016;23.098;2022-11-11T11:30:58;50.40;;;47.10;;
7613;SDS011;3848;42.016;23.098;2022-11-11T11:33:27;45.30;;;42.40;;
7613;SDS011;3848;42.016;23.098;2022-11-11T11:36:16;47.60;;;44.60;;
7613;SDS011;3848;42.016;23.098;2022-11-11T11:38:46;45.67;;;42.87;;
7613;SDS011;3848;42.016;23.098;2022-11-11T11:41:15;44.63;;;41.57;;
7613;SDS011;3848;42.016;23.098;2022-11-11T11:43:43;42.37;;;39.20;;
7613;SDS011;3848;42.016;23.098;2022-11-11T11:46:15;43.17;;;40.60;;
7613;SDS011;3848;42.016;23.098;2022-11-11T11:48:51;45.87;;;42.93;;
7613;SDS011;3848;42.016;23.098;2022-11-11T11:51:31;45.07;;;42.07;;
7613;SDS011;3848;42.016;23.098;2022-11-11T11:54:04;44.70;;;41.90;;
7613;SDS011;3848;42.016;23.098;2022-11-11T11:56:41;44.03;;;41.17;;
7613;SDS011;3848;42.016;23.098;2022-11-11T11:59:12;45.87;;;42.83;;
7613;SDS011;3848;42.016;23.098;2022-11-11T12:01:48;39.80;;;37.20;;
7613;SDS011;3848;42.016;23.098;2022-11-11T12:04:33;42.57;;;39.87;;
7613;SDS011;3848;42.016;23.098;2022-11-11T12:07:12;41.63;;;39.00;;
7613;SDS011;3848;42.016;23.098;2022-11-11T12:09:53;42.87;;;40.13;;
7613;SDS011;3848;42.016;23.098;2022-11-11T12:12:30;38.57;;;35.90;;
7613;SDS011;3848;42.016;23.098;2022-11-11T12:17:56;38.73;;;36.23;;
7613;SDS011;3848;42.016;23.098;2022-11-11T12:20:38;37.90;;;35.07;;
7613;SDS011;3848;42.016;23.098;2022-11-11T12:26:07;36.63;;;34.13;;
7613;SDS011;3848;42.016;23.098;2022-11-11T12:28:44;37.00;;;34.43;;
7613;SDS011;3848;42.016;23.098;2022-11-11T12:31:24;39.83;;;37.23;;
7613;SDS011;3848;42.016;23.098;2022-11-11T12:34:00;41.23;;;38.50;;
7613;SDS011;3848;42.016;23.098;2022-11-11T12:36:43;41.03;;;38.50;;
7613;SDS011;3848;42.016;23.098;2022-11-11T12:39:33;37.23;;;34.83;;
7613;SDS011;3848;42.016;23.098;2022-11-11T12:42:15;38.33;;;35.67;;
7613;SDS011;3848;42.016;23.098;2022-11-11T12:44:54;36.60;;;34.50;;
7613;SDS011;3848;42.016;23.098;2022-11-11T12:47:31;39.03;;;35.33;;
7613;SDS011;3848;42.016;23.098;2022-11-11T12:50:07;37.33;;;35.07;;
7613;SDS011;3848;42.016;23.098;2022-11-11T12:52:45;36.67;;;34.37;;
7613;SDS011;3848;42.016;23.098;2022-11-11T12:55:25;38.20;;;35.30;;
7613;SDS011;3848;42.016;23.098;2022-11-11T12:58:04;34.97;;;32.80;;
7613;SDS011;3848;42.016;23.098;2022-11-11T13:00:39;37.00;;;34.03;;
7613;SDS011;3848;42.016;23.098;2022-11-11T13:03:20;38.77;;;36.00;;
7613;SDS011;3848;42.016;23.098;2022-11-11T13:06:01;37.33;;;34.90;;
7613;SDS011;3848;42.016;23.098;2022-11-11T13:08:44;36.63;;;34.53;;
7613;SDS011;3848;42.016;23.098;2022-11-11T13:11:23;35.87;;;33.60;;
7613;SDS011;3848;42.016;23.098;2022-11-11T13:14:02;34.57;;;32.43;;
7613;SDS011;3848;42.016;23.098;2022-11-11T13:16:44;37.73;;;35.43;;
7613;SDS011;3848;42.016;23.098;2022-11-11T13:19:13;37.33;;;34.70;;
7613;SDS011;3848;42.016;23.098;2022-11-11T13:21:47;37.70;;;35.50;;
7613;SDS011;3848;42.016;23.098;2022-11-11T13:24:19;37.27;;;34.87;;
7613;SDS011;3848;42.016;23.098;2022-11-11T13:26:48;36.57;;;33.80;;
7613;SDS011;3848;42.016;23.098;2022-11-11T13:29:37;37.60;;;35.23;;
7613;SDS011;3848;42.016;23.098;2022-11-11T13:32:18;38.10;;;35.50;;
7613;SDS011;3848;42.016;23.098;2022-11-11T13:34:49;36.17;;;33.87;;
7613;SDS011;3848;42.016;23.098;2022-11-11T13:37:19;38.13;;;35.60;;
7613;SDS011;3848;42.016;23.098;2022-11-11T13:39:52;38.50;;;35.30;;
7613;SDS011;3848;42.016;23.098;2022-11-11T13:42:25;37.77;;;35.50;;
7613;SDS011;3848;42.016;23.098;2022-11-11T13:44:58;35.80;;;33.60;;
7613;SDS011;3848;42.016;23.098;2022-11-11T13:47:31;39.80;;;37.10;;
7613;SDS011;3848;42.016;23.098;2022-11-11T13:50:01;32.77;;;30.87;;
7613;SDS011;3848;42.016;23.098;2022-11-11T13:52:31;33.63;;;31.63;;
7613;SDS011;3848;42.016;23.098;2022-11-11T13:55:01;34.53;;;32.17;;
7613;SDS011;3848;42.016;23.098;2022-11-11T13:57:31;39.20;;;36.27;;
7613;SDS011;3848;42.016;23.098;2022-11-11T14:00:03;37.03;;;34.73;;
7613;SDS011;3848;42.016;23.098;2022-11-11T14:02:33;33.77;;;31.73;;
7613;SDS011;3848;42.016;23.098;2022-11-11T14:07:52;34.57;;;32.37;;
7613;SDS011;3848;42.016;23.098;2022-11-11T14:13:35;33.60;;;31.57;;
7613;SDS011;3848;42.016;23.098;2022-11-11T14:16:55;36.30;;;34.07;;
7613;SDS011;3848;42.016;23.098;2022-11-11T14:19:28;35.73;;;33.53;;
7613;SDS011;3848;42.016;23.098;2022-11-11T14:21:57;33.03;;;31.13;;
7613;SDS011;3848;42.016;23.098;2022-11-11T14:24:25;31.67;;;29.50;;
7613;SDS011;3848;42.016;23.098;2022-11-11T14:26:59;36.23;;;33.77;;
7613;SDS011;3848;42.016;23.098;2022-11-11T14:29:29;31.30;;;29.43;;
7613;SDS011;3848;42.016;23.098;2022-11-11T14:32:02;37.33;;;34.40;;
7613;SDS011;3848;42.016;23.098;2022-11-11T14:34:52;33.27;;;30.60;;
7613;SDS011;3848;42.016;23.098;2022-11-11T14:37:35;33.77;;;31.77;;
7613;SDS011;3848;42.016;23.098;2022-11-11T14:40:12;31.57;;;29.50;;
7613;SDS011;3848;42.016;23.098;2022-11-11T14:42:49;31.97;;;29.60;;
7613;SDS011;3848;42.016;23.098;2022-11-11T14:51:36;35.80;;;33.60;;
7613;SDS011;3848;42.016;23.098;2022-11-11T14:54:21;38.00;;;35.57;;
7613;SDS011;3848;42.016;23.098;2022-11-11T14:57:08;34.30;;;31.97;;
7613;SDS011;3848;42.016;23.098;2022-11-11T14:59:43;36.27;;;34.03;;
7613;SDS011;3848;42.016;23.098;2022-11-11T15:02:12;34.77;;;32.70;;
7613;SDS011;3848;42.016;23.098;2022-11-11T15:04:48;35.20;;;33.10;;
7613;SDS011;3848;42.016;23.098;2022-11-11T15:07:20;32.70;;;30.47;;
7613;SDS011;3848;42.016;23.098;2022-11-11T15:15:38;35.27;;;33.17;;
7613;SDS011;3848;42.016;23.098;2022-11-11T15:18:15;36.03;;;33.93;;
7613;SDS011;3848;42.016;23.098;2022-11-11T15:20:56;34.03;;;32.03;;
7613;SDS011;3848;42.016;23.098;2022-11-11T15:23:34;33.53;;;31.63;;
7613;SDS011;3848;42.016;23.098;2022-11-11T15:26:10;37.53;;;35.33;;
7613;SDS011;3848;42.016;23.098;2022-11-11T15:31:47;34.57;;;32.50;;